createdAt,value
2023-04-07T00:01:07.150Z,0.10
2023-04-07T00:03:35.737Z,0.10
2023-04-07T00:06:03.866Z,0.00
2023-04-07T00:08:31.759Z,0.00
2023-04-07T00:11:01.161Z,0.00
2023-04-07T00:13:30.612Z,0.00
2023-04-07T00:15:58.811Z,0.10
2023-04-07T00:18:27.246Z,0.00
2023-04-07T00:20:55.280Z,0.00
2023-04-07T00:23:23.294Z,0.00
2023-04-07T00:25:51.233Z,0.00
2023-04-07T00:28:20.601Z,0.00
2023-04-07T00:30:48.638Z,0.00
2023-04-07T00:33:16.665Z,0.00
2023-04-07T00:35:44.775Z,-0.10
2023-04-07T00:38:13.091Z,-0.10
2023-04-07T00:40:41.109Z,-0.10
2023-04-07T00:43:09.320Z,-0.10
2023-04-07T00:45:39.118Z,-0.10
2023-04-07T00:48:07.409Z,-0.10
2023-04-07T00:50:35.471Z,-0.20
2023-04-07T00:53:03.418Z,-0.20
2023-04-07T00:55:31.421Z,-0.20
2023-04-07T00:57:59.432Z,-0.20
2023-04-07T01:00:29.131Z,-0.20
2023-04-07T01:03:02.635Z,-0.20
2023-04-07T01:05:39.718Z,-0.30
2023-04-07T01:08:14.513Z,-0.30
2023-04-07T01:10:52.517Z,-0.20
2023-04-07T01:13:28.028Z,-0.20
2023-04-07T01:16:10.555Z,-0.10
2023-04-07T01:18:48.770Z,-0.10
2023-04-07T01:21:19.146Z,-0.10
2023-04-07T01:24:01.755Z,-0.20
2023-04-07T01:26:31.228Z,-0.20
2023-04-07T01:29:26.076Z,-0.20
2023-04-07T01:31:56.663Z,-0.20
2023-04-07T01:34:27.088Z,-0.20
2023-04-07T01:36:56.655Z,-0.30
2023-04-07T01:39:25.299Z,-0.30
2023-04-07T01:41:55.283Z,-0.30
2023-04-07T01:44:25.872Z,-0.30
2023-04-07T01:46:54.996Z,-0.30
2023-04-07T01:49:25.000Z,-0.30
2023-04-07T01:51:53.393Z,-0.30
2023-04-07T01:54:22.436Z,-0.30
2023-04-07T01:56:50.835Z,-0.30
2023-04-07T01:59:18.870Z,-0.30
2023-04-07T02:01:49.420Z,-0.30
2023-04-07T02:04:26.175Z,-0.30
2023-04-07T02:07:00.322Z,-0.30
2023-04-07T02:09:39.743Z,-0.30
2023-04-07T02:12:09.981Z,-0.30
2023-04-07T02:14:42.158Z,-0.30
2023-04-07T02:17:15.872Z,-0.40
2023-04-07T02:19:45.258Z,-0.40
2023-04-07T02:22:14.491Z,-0.40
2023-04-07T02:24:43.476Z,-0.40
2023-04-07T02:27:11.448Z,-0.40
2023-04-07T02:29:39.521Z,-0.40
2023-04-07T02:32:07.815Z,-0.40
2023-04-07T02:34:37.666Z,-0.40
2023-04-07T02:37:07.069Z,-0.50
2023-04-07T02:39:35.373Z,-0.50
2023-04-07T02:42:03.297Z,-0.60
2023-04-07T02:44:31.328Z,-0.60
2023-04-07T02:46:59.291Z,-0.60
2023-04-07T02:49:27.325Z,-0.60
2023-04-07T02:51:56.750Z,-0.70
2023-04-07T02:54:24.900Z,-0.70
2023-04-07T02:56:52.917Z,-0.70
2023-04-07T02:59:21.097Z,-0.80
2023-04-07T03:01:49.320Z,-0.80
2023-04-07T03:04:18.175Z,-0.90
2023-04-07T03:06:46.472Z,-0.90
2023-04-07T03:09:18.082Z,-0.90
2023-04-07T03:11:46.054Z,-0.90
2023-04-07T03:14:14.494Z,-1.00
2023-04-07T03:16:47.109Z,-1.00
2023-04-07T03:19:16.368Z,-1.10
2023-04-07T03:21:47.809Z,-1.10
2023-04-07T03:24:17.412Z,-1.10
2023-04-07T03:26:47.419Z,-1.20
2023-04-07T03:29:22.539Z,-1.30
2023-04-07T03:31:50.468Z,-1.30
2023-04-07T03:34:22.709Z,-1.40
2023-04-07T03:36:50.937Z,-1.40
2023-04-07T03:39:20.497Z,-1.40
2023-04-07T03:41:48.495Z,-1.40
2023-04-07T03:44:16.943Z,-1.40
2023-04-07T03:46:45.461Z,-1.50
2023-04-07T03:49:13.498Z,-1.50
2023-04-07T03:51:41.658Z,-1.50
2023-04-07T03:54:15.529Z,-1.50
2023-04-07T03:56:46.670Z,-1.50
2023-04-07T03:59:17.559Z,-1.50
2023-04-07T04:01:59.712Z,-1.50
2023-04-07T04:04:28.199Z,-1.50
2023-04-07T04:06:56.633Z,-1.40
2023-04-07T04:09:35.857Z,-1.40
2023-04-07T04:12:05.845Z,-1.40
2023-04-07T04:14:37.598Z,-1.40
2023-04-07T04:17:07.724Z,-1.40
2023-04-07T04:19:40.700Z,-1.40
2023-04-07T04:22:22.852Z,-1.40
2023-04-07T04:24:54.775Z,-1.40
2023-04-07T04:27:26.206Z,-1.30
2023-04-07T04:30:00.894Z,-1.30
2023-04-07T04:32:37.181Z,-1.30
2023-04-07T04:35:07.891Z,-1.20
2023-04-07T04:37:42.544Z,-1.30
2023-04-07T04:40:14.570Z,-1.20
2023-04-07T04:42:46.083Z,-1.20
2023-04-07T04:45:14.709Z,-1.30
2023-04-07T04:47:47.100Z,-1.20
2023-04-07T04:50:15.231Z,-1.20
2023-04-07T04:52:45.625Z,-1.30
2023-04-07T04:55:20.619Z,-1.30
2023-04-07T04:57:50.389Z,-1.40
2023-04-07T05:00:24.714Z,-1.40
2023-04-07T05:02:58.597Z,-1.40
2023-04-07T05:05:27.599Z,-1.50
2023-04-07T05:07:56.673Z,-1.50
2023-04-07T05:10:26.629Z,-1.60
2023-04-07T05:12:57.296Z,-1.60
2023-04-07T05:15:25.215Z,-1.50
2023-04-07T05:17:53.159Z,-1.50
2023-04-07T05:20:25.346Z,-1.50
2023-04-07T05:22:53.373Z,-1.50
2023-04-07T05:25:24.675Z,-1.40
2023-04-07T05:27:59.585Z,-1.30
2023-04-07T05:30:27.560Z,-1.30
2023-04-07T05:32:56.447Z,-1.30
2023-04-07T05:35:36.924Z,-1.20
2023-04-07T05:38:05.009Z,-1.20
2023-04-07T05:40:35.056Z,-1.10
2023-04-07T05:43:06.112Z,-1.10
2023-04-07T05:45:35.209Z,-1.00
2023-04-07T05:48:03.741Z,-0.90
2023-04-07T05:50:40.448Z,-0.80
2023-04-07T05:53:12.428Z,-0.80
2023-04-07T05:55:43.138Z,-0.70
2023-04-07T05:58:16.357Z,-0.60
2023-04-07T06:00:49.628Z,-0.50
2023-04-07T06:03:19.659Z,-0.50
2023-04-07T06:06:04.133Z,-0.40
2023-04-07T06:08:32.242Z,-0.30
2023-04-07T06:11:00.255Z,-0.20
2023-04-07T06:13:29.573Z,-0.10
2023-04-07T06:15:58.217Z,0.00
2023-04-07T06:18:26.427Z,0.10
2023-04-07T06:20:54.415Z,0.20
2023-04-07T06:23:23.171Z,0.30
2023-04-07T06:25:53.136Z,0.40
2023-04-07T06:28:22.013Z,0.50
2023-04-07T06:30:51.525Z,0.60
2023-04-07T06:33:20.076Z,0.70
2023-04-07T06:35:47.986Z,0.80
2023-04-07T06:38:15.981Z,0.90
2023-04-07T06:40:43.946Z,1.00
2023-04-07T06:43:11.965Z,1.10
2023-04-07T06:45:45.011Z,1.20
2023-04-07T06:48:14.268Z,1.30
2023-04-07T06:50:42.196Z,1.40
2023-04-07T06:53:10.297Z,1.50
2023-04-07T06:55:38.321Z,1.70
2023-04-07T06:58:06.364Z,1.80
2023-04-07T07:00:34.290Z,1.90
2023-04-07T07:03:02.730Z,2.00
2023-04-07T07:05:32.487Z,2.20
2023-04-07T07:08:00.577Z,2.30
2023-04-07T07:10:28.704Z,2.40
2023-04-07T07:12:56.757Z,2.50
2023-04-07T07:15:24.822Z,2.60
2023-04-07T07:17:52.796Z,2.80
2023-04-07T07:20:23.396Z,2.90
2023-04-07T07:22:52.695Z,3.00
2023-04-07T07:25:20.626Z,3.20
2023-04-07T07:27:51.989Z,3.30
2023-04-07T07:30:20.464Z,3.40
2023-04-07T07:32:48.472Z,3.50
2023-04-07T07:35:16.782Z,3.60
2023-04-07T07:37:44.912Z,3.80
2023-04-07T07:40:14.583Z,3.90
2023-04-07T07:42:42.736Z,4.10
2023-04-07T07:45:12.116Z,4.20
2023-04-07T07:47:40.282Z,4.40
2023-04-07T07:50:08.732Z,4.50
2023-04-07T07:52:36.643Z,4.70
2023-04-07T07:55:05.194Z,4.80
2023-04-07T07:57:34.643Z,5.00
2023-04-07T08:00:02.883Z,5.10
2023-04-07T08:02:41.278Z,5.20
2023-04-07T08:05:09.774Z,5.30
2023-04-07T08:07:38.223Z,5.40
2023-04-07T08:10:07.011Z,5.60
2023-04-07T08:12:36.590Z,5.70
2023-04-07T08:15:05.822Z,5.80
2023-04-07T08:17:34.584Z,5.90
2023-04-07T08:20:03.437Z,6.00
2023-04-07T08:22:31.374Z,6.00
2023-04-07T08:24:59.308Z,6.20
2023-04-07T08:27:27.275Z,6.20
2023-04-07T08:30:02.367Z,6.30
2023-04-07T08:32:36.633Z,6.30
2023-04-07T08:35:05.395Z,6.40
2023-04-07T08:37:34.036Z,6.50
2023-04-07T08:40:02.260Z,6.60
2023-04-07T08:42:32.336Z,6.70
2023-04-07T08:45:04.984Z,6.70
2023-04-07T08:47:34.979Z,6.70
2023-04-07T08:50:04.854Z,6.80
2023-04-07T08:52:36.476Z,6.90
2023-04-07T08:55:06.975Z,7.00
2023-04-07T08:57:35.570Z,7.00
2023-04-07T09:00:06.135Z,7.00
2023-04-07T09:02:35.437Z,7.10
2023-04-07T09:05:06.462Z,7.30
2023-04-07T09:07:36.168Z,7.40
2023-04-07T09:10:04.676Z,7.50
2023-04-07T09:12:33.426Z,7.50
2023-04-07T09:15:01.852Z,7.60
2023-04-07T09:17:31.116Z,7.60
2023-04-07T09:20:00.729Z,7.80
2023-04-07T09:22:39.535Z,7.80
2023-04-07T09:25:18.400Z,8.00
2023-04-07T09:28:00.466Z,8.10
2023-04-07T09:30:30.210Z,8.20
2023-04-07T09:33:00.923Z,8.40
2023-04-07T09:35:29.783Z,8.40
2023-04-07T09:38:05.639Z,8.40
2023-04-07T09:40:33.862Z,8.40
2023-04-07T09:43:02.792Z,8.50
2023-04-07T09:45:35.657Z,8.50
2023-04-07T09:48:10.861Z,8.60
2023-04-07T09:50:45.835Z,8.60
2023-04-07T09:53:13.947Z,8.70
2023-04-07T09:55:42.583Z,8.60
2023-04-07T09:58:14.164Z,8.80
2023-04-07T10:00:42.792Z,8.80
2023-04-07T10:03:12.725Z,9.00
2023-04-07T10:05:41.411Z,9.10
2023-04-07T10:08:11.347Z,9.30
2023-04-07T10:10:42.821Z,9.40
2023-04-07T10:13:11.071Z,9.40
2023-04-07T10:15:39.274Z,9.60
2023-04-07T10:18:09.138Z,9.70
2023-04-07T10:20:41.428Z,9.90
2023-04-07T10:23:17.606Z,10.00
2023-04-07T10:25:48.809Z,10.00
2023-04-07T10:28:18.754Z,10.20
2023-04-07T10:30:49.272Z,10.30
2023-04-07T10:33:18.524Z,10.30
2023-04-07T10:36:07.176Z,10.40
2023-04-07T10:38:35.508Z,10.40
2023-04-07T10:41:33.352Z,10.50
2023-04-07T10:44:01.295Z,10.60
2023-04-07T10:47:04.042Z,10.70
2023-04-07T10:49:32.330Z,10.90
2023-04-07T10:52:26.427Z,10.90
2023-04-07T10:55:31.844Z,11.00
2023-04-07T10:58:20.877Z,11.10
2023-04-07T11:01:22.233Z,11.20
2023-04-07T11:04:01.313Z,11.10
2023-04-07T11:06:29.570Z,11.20
2023-04-07T11:08:59.050Z,11.30
2023-04-07T11:11:42.463Z,11.30
2023-04-07T11:14:10.533Z,11.40
2023-04-07T11:16:41.469Z,11.60
2023-04-07T11:19:09.900Z,11.70
2023-04-07T11:21:38.117Z,11.80
2023-04-07T11:24:07.705Z,11.60
2023-04-07T11:26:40.517Z,11.60
2023-04-07T11:29:09.109Z,11.70
2023-04-07T11:31:37.920Z,11.60
2023-04-07T11:34:06.825Z,11.60
2023-04-07T11:36:36.349Z,11.80
2023-04-07T11:39:07.016Z,11.90
2023-04-07T11:41:46.200Z,12.00
2023-04-07T11:44:15.988Z,12.10
2023-04-07T11:46:54.698Z,12.20
2023-04-07T11:49:23.735Z,12.30
2023-04-07T11:51:59.976Z,12.40
2023-04-07T11:54:29.502Z,12.50
2023-04-07T11:56:57.590Z,12.50
2023-04-07T11:59:26.665Z,12.40
2023-04-07T12:01:57.694Z,12.30
2023-04-07T12:04:26.209Z,12.20
2023-04-07T12:06:54.383Z,12.20
2023-04-07T12:09:32.304Z,12.20
2023-04-07T12:12:00.681Z,12.30
2023-04-07T12:14:28.785Z,12.50
2023-04-07T12:16:58.226Z,12.60
2023-04-07T12:19:27.830Z,12.60
2023-04-07T12:21:56.072Z,12.80
2023-04-07T12:24:24.299Z,13.00
2023-04-07T12:26:54.355Z,12.90
2023-04-07T12:29:22.901Z,12.90
2023-04-07T12:31:51.498Z,13.00
2023-04-07T12:34:20.358Z,13.20
2023-04-07T12:36:48.391Z,13.50
2023-04-07T12:39:17.065Z,13.70
2023-04-07T12:41:45.912Z,13.90
2023-04-07T12:44:15.609Z,14.00
2023-04-07T12:46:43.647Z,14.10
2023-04-07T12:49:11.581Z,14.10
2023-04-07T12:51:40.194Z,14.00
2023-04-07T12:54:08.519Z,14.10
2023-04-07T12:56:37.833Z,14.30
2023-04-07T12:59:05.787Z,14.50
2023-04-07T13:01:37.280Z,14.50
2023-04-07T13:04:05.492Z,14.30
2023-04-07T13:06:33.652Z,14.40
2023-04-07T13:09:01.612Z,14.40
2023-04-07T13:11:29.548Z,14.40
2023-04-07T13:13:59.273Z,14.60
2023-04-07T13:16:28.866Z,14.70
2023-04-07T13:18:58.458Z,14.90
2023-04-07T13:21:45.441Z,15.10
2023-04-07T13:24:16.425Z,15.30
2023-04-07T13:26:44.493Z,15.60
2023-04-07T13:29:12.399Z,15.90
2023-04-07T13:31:40.396Z,16.00
2023-04-07T13:34:09.878Z,16.00
2023-04-07T13:36:37.872Z,16.00
2023-04-07T13:39:06.552Z,15.40
2023-04-07T13:41:35.473Z,15.30
2023-04-07T13:44:04.185Z,15.40
2023-04-07T13:46:32.187Z,15.60
2023-04-07T13:49:00.120Z,15.90
2023-04-07T13:51:29.385Z,16.30
2023-04-07T13:53:57.392Z,16.40
2023-04-07T13:56:25.277Z,16.10
2023-04-07T13:58:53.949Z,16.00
2023-04-07T14:01:22.152Z,16.00
2023-04-07T14:03:50.412Z,16.10
2023-04-07T14:06:22.506Z,16.30
2023-04-07T14:08:52.392Z,16.50
2023-04-07T14:11:20.382Z,16.70
2023-04-07T14:13:48.706Z,17.20
2023-04-07T14:16:17.733Z,17.80
2023-04-07T14:18:46.872Z,18.30
2023-04-07T14:21:15.223Z,18.40
2023-04-07T14:23:43.308Z,17.90
2023-04-07T14:26:13.080Z,17.30
2023-04-07T14:28:41.586Z,17.00
2023-04-07T14:31:15.106Z,16.80
2023-04-07T14:33:43.275Z,16.70
2023-04-07T14:36:11.655Z,16.60
2023-04-07T14:38:39.963Z,16.60
2023-04-07T14:41:09.910Z,16.80
2023-04-07T14:43:41.134Z,17.20
2023-04-07T14:46:09.241Z,17.70
2023-04-07T14:48:37.935Z,17.70
2023-04-07T14:51:12.491Z,17.50
2023-04-07T14:53:41.912Z,17.50
2023-04-07T14:56:10.139Z,17.50
2023-04-07T14:58:41.445Z,17.80
2023-04-07T15:01:09.482Z,18.00
2023-04-07T15:03:37.856Z,17.70
2023-04-07T15:06:08.646Z,17.70
2023-04-07T15:08:36.629Z,17.80
2023-04-07T15:11:05.779Z,17.80
2023-04-07T15:13:33.753Z,17.80
2023-04-07T15:16:09.797Z,17.40
2023-04-07T15:18:39.642Z,17.10
2023-04-07T15:21:07.655Z,16.70
2023-04-07T15:23:37.806Z,16.00
2023-04-07T15:26:05.929Z,15.70
2023-04-07T15:28:34.106Z,15.70
2023-04-07T15:31:02.209Z,15.80
2023-04-07T15:33:31.673Z,15.70
2023-04-07T15:36:01.282Z,15.50
2023-04-07T15:38:29.696Z,15.30
2023-04-07T15:40:57.602Z,15.10
2023-04-07T15:43:25.652Z,14.90
2023-04-07T15:45:56.780Z,14.90
2023-04-07T15:48:24.986Z,14.90
2023-04-07T15:50:54.701Z,15.00
2023-04-07T15:53:22.775Z,15.10
2023-04-07T15:55:50.811Z,15.30
2023-04-07T15:58:18.848Z,15.30
2023-04-07T16:00:47.179Z,15.40
2023-04-07T16:03:15.424Z,15.30
2023-04-07T16:05:43.723Z,15.30
2023-04-07T16:08:13.959Z,15.40
2023-04-07T16:10:42.056Z,15.40
2023-04-07T16:13:10.394Z,15.50
2023-04-07T16:15:41.176Z,15.50
2023-04-07T16:18:12.131Z,15.40
2023-04-07T16:20:40.337Z,15.30
2023-04-07T16:23:08.348Z,15.30
2023-04-07T16:25:37.674Z,15.20
2023-04-07T16:28:05.635Z,15.30
2023-04-07T16:30:33.662Z,15.30
2023-04-07T16:33:01.761Z,15.30
2023-04-07T16:35:30.832Z,15.20
2023-04-07T16:38:01.658Z,15.10
2023-04-07T16:40:29.606Z,14.90
2023-04-07T16:42:58.983Z,14.80
2023-04-07T16:45:26.876Z,14.80
2023-04-07T16:47:55.089Z,14.80
2023-04-07T16:50:23.067Z,14.90
2023-04-07T16:52:51.139Z,14.70
2023-04-07T16:55:19.184Z,14.50
2023-04-07T16:57:48.209Z,14.30
2023-04-07T17:00:19.336Z,14.20
2023-04-07T17:02:47.367Z,14.20
2023-04-07T17:05:16.955Z,14.10
2023-04-07T17:07:44.934Z,14.00
2023-04-07T17:10:14.563Z,13.80
2023-04-07T17:12:42.530Z,13.60
2023-04-07T17:15:11.262Z,13.50
2023-04-07T17:17:40.796Z,13.30
2023-04-07T17:20:09.556Z,13.10
2023-04-07T17:22:37.549Z,13.00
2023-04-07T17:25:06.530Z,12.80
2023-04-07T17:27:34.849Z,12.70
2023-04-07T17:30:03.238Z,12.60
2023-04-07T17:32:31.554Z,12.50
2023-04-07T17:35:00.844Z,12.40
2023-04-07T17:37:28.820Z,12.30
2023-04-07T17:39:56.713Z,12.20
2023-04-07T17:42:24.717Z,12.10
2023-04-07T17:44:53.876Z,12.00
2023-04-07T17:47:21.865Z,11.90
2023-04-07T17:49:49.894Z,11.80
2023-04-07T17:52:19.197Z,11.70
2023-04-07T17:54:47.204Z,11.70
2023-04-07T17:57:15.841Z,11.60
2023-04-07T17:59:43.819Z,11.50
2023-04-07T18:02:11.976Z,11.40
2023-04-07T18:04:40.518Z,11.20
2023-04-07T18:07:09.475Z,11.20
2023-04-07T18:09:38.741Z,11.10
2023-04-07T18:12:07.327Z,10.90
2023-04-07T18:14:35.554Z,10.90
2023-04-07T18:17:03.702Z,10.70
2023-04-07T18:19:32.900Z,10.70
2023-04-07T18:22:01.106Z,10.60
2023-04-07T18:24:29.531Z,10.50
2023-04-07T18:26:59.275Z,10.50
2023-04-07T18:29:27.341Z,10.40
2023-04-07T18:31:55.537Z,10.30
2023-04-07T18:34:26.549Z,10.30
2023-04-07T18:36:55.370Z,10.20
2023-04-07T18:39:23.367Z,10.10
2023-04-07T18:41:51.736Z,10.00
2023-04-07T18:44:21.093Z,10.00
2023-04-07T18:46:49.138Z,9.90
2023-04-07T18:49:17.273Z,9.90
2023-04-07T18:51:46.798Z,9.80
2023-04-07T18:54:14.815Z,9.80
2023-04-07T18:56:42.714Z,9.70
2023-04-07T18:59:10.929Z,9.70
2023-04-07T19:01:42.680Z,9.70
2023-04-07T19:04:11.729Z,9.60
2023-04-07T19:06:39.856Z,9.60
2023-04-07T19:09:07.849Z,9.30
2023-04-07T19:11:35.982Z,9.10
2023-04-07T19:14:06.378Z,8.90
2023-04-07T19:16:35.954Z,8.60
2023-04-07T19:19:06.089Z,8.30
2023-04-07T19:21:34.564Z,8.10
2023-04-07T19:24:02.528Z,7.90
2023-04-07T19:26:30.623Z,7.80
2023-04-07T19:28:58.832Z,7.90
2023-04-07T19:31:26.880Z,8.00
2023-04-07T19:33:55.568Z,8.10
2023-04-07T19:36:24.901Z,8.10
2023-04-07T19:38:52.840Z,8.10
2023-04-07T19:41:21.162Z,8.20
2023-04-07T19:43:49.437Z,8.20
2023-04-07T19:46:17.687Z,8.20
2023-04-07T19:48:46.193Z,8.10
2023-04-07T19:51:14.276Z,8.10
2023-04-07T19:53:43.525Z,8.10
2023-04-07T19:56:13.883Z,8.10
2023-04-07T19:58:41.908Z,8.00
2023-04-07T20:01:17.547Z,7.90
2023-04-07T20:03:46.212Z,7.80
2023-04-07T20:06:15.211Z,7.60
2023-04-07T20:08:44.948Z,7.40
2023-04-07T20:11:13.294Z,7.30
2023-04-07T20:13:43.592Z,7.30
2023-04-07T20:16:11.739Z,7.30
2023-04-07T20:18:39.691Z,7.30
2023-04-07T20:21:07.688Z,7.20
2023-04-07T20:23:35.693Z,7.10
2023-04-07T20:26:05.024Z,7.00
2023-04-07T20:28:33.135Z,7.10
2023-04-07T20:31:01.566Z,7.10
2023-04-07T20:33:29.614Z,7.10
2023-04-07T20:35:57.636Z,7.10
2023-04-07T20:38:26.043Z,7.10
2023-04-07T20:40:54.171Z,7.00
2023-04-07T20:43:23.810Z,7.00
2023-04-07T20:45:53.378Z,7.00
2023-04-07T20:48:23.927Z,7.00
2023-04-07T20:50:52.903Z,6.90
2023-04-07T20:53:21.452Z,6.80
2023-04-07T20:55:49.502Z,6.80
2023-04-07T20:58:18.449Z,6.70
2023-04-07T21:00:47.980Z,6.70
2023-04-07T21:03:16.361Z,6.60
2023-04-07T21:05:45.815Z,6.60
2023-04-07T21:08:14.777Z,6.60
2023-04-07T21:10:43.359Z,6.50
2023-04-07T21:13:11.319Z,6.50
2023-04-07T21:15:39.322Z,6.50
2023-04-07T21:18:08.701Z,6.50
2023-04-07T21:20:37.458Z,6.60
2023-04-07T21:23:05.922Z,6.70
2023-04-07T21:25:33.846Z,6.80
2023-04-07T21:28:01.753Z,6.90
2023-04-07T21:30:29.771Z,6.90
2023-04-07T21:32:57.769Z,6.90
2023-04-07T21:35:29.311Z,6.90
2023-04-07T21:37:57.832Z,6.80
2023-04-07T21:40:25.795Z,6.70
2023-04-07T21:42:53.701Z,6.60
2023-04-07T21:45:21.801Z,6.60
2023-04-07T21:47:49.794Z,6.50
2023-04-07T21:50:17.854Z,6.50
2023-04-07T21:52:50.581Z,6.50
2023-04-07T21:55:18.936Z,6.50
2023-04-07T21:57:47.165Z,6.50
2023-04-07T22:00:16.418Z,6.40
2023-04-07T22:02:45.587Z,6.40
2023-04-07T22:05:13.832Z,6.40
2023-04-07T22:07:43.245Z,6.50
2023-04-07T22:10:12.823Z,6.40
2023-04-07T22:12:40.977Z,6.40
2023-04-07T22:15:10.348Z,6.30
2023-04-07T22:17:39.878Z,6.30
2023-04-07T22:20:10.286Z,6.30
2023-04-07T22:22:38.306Z,6.30
2023-04-07T22:25:07.677Z,6.30
2023-04-07T22:27:36.893Z,6.30
2023-04-07T22:30:05.360Z,6.30
2023-04-07T22:32:33.291Z,6.40
2023-04-07T22:35:01.386Z,6.40
2023-04-07T22:37:29.354Z,6.50
2023-04-07T22:39:57.338Z,6.50
2023-04-07T22:42:25.441Z,6.60
2023-04-07T22:44:54.791Z,6.60
2023-04-07T22:47:22.777Z,6.60
2023-04-07T22:49:51.814Z,6.60
2023-04-07T22:52:19.800Z,6.70
2023-04-07T22:54:47.814Z,6.70
2023-04-07T22:57:15.820Z,6.70
2023-04-07T22:59:43.924Z,6.70
2023-04-07T23:02:13.257Z,6.70
2023-04-07T23:04:41.236Z,6.70
2023-04-07T23:07:09.213Z,6.70
2023-04-07T23:09:37.218Z,6.70
2023-04-07T23:12:05.564Z,6.70
2023-04-07T23:14:33.537Z,6.80
2023-04-07T23:17:01.913Z,6.70
2023-04-07T23:19:31.177Z,6.80
2023-04-07T23:21:59.075Z,6.80
2023-04-07T23:24:27.220Z,6.80
2023-04-07T23:26:56.862Z,6.80
2023-04-07T23:29:24.933Z,6.70
2023-04-07T23:31:53.378Z,6.70
2023-04-07T23:34:21.586Z,6.60
2023-04-07T23:36:50.969Z,6.60
2023-04-07T23:39:18.912Z,6.60
2023-04-07T23:41:46.789Z,6.60
2023-04-07T23:44:14.746Z,6.60
2023-04-07T23:46:42.749Z,6.60
2023-04-07T23:49:10.671Z,6.60
2023-04-07T23:51:39.481Z,6.60
2023-04-07T23:54:08.731Z,6.60
2023-04-07T23:56:36.642Z,6.60
2023-04-07T23:59:04.767Z,6.60
